Time;durP1;ratioP1;P1;durP2;ratioP2;P2;SDS_P1;SDS_P2;PMS_P1;PMS_P2;Temp;Humidity;BMP_temperature;BMP_pressure;BME280_temperature;BME280_humidity;BME280_pressure;Samples;Min_cycle;Max_cycle;Signal;HPM_P1;HPM_P2
2022/08/31 00:05:45;;;;;;;11.20;6.45;;;;;;;20.81;100.00;100236.09;5034421;28;20060;-80
2022/08/31 00:08:13;;;;;;;10.40;6.45;;;;;;;20.77;100.00;100229.28;5034247;28;20053;-76
2022/08/31 00:10:45;;;;;;;9.38;6.40;;;;;;;20.69;100.00;100224.66;5034063;28;20072;-76
2022/08/31 00:13:14;;;;;;;8.73;5.50;;;;;;;20.68;100.00;100222.97;5034526;28;20049;-77
2022/08/31 00:15:44;;;;;;;10.60;5.63;;;;;;;20.68;100.00;100222.97;5034055;28;20123;-76
2022/08/31 00:18:15;;;;;;;8.15;4.85;;;;;;;20.77;98.75;100221.16;5034345;28;20049;-77
2022/08/31 00:20:44;;;;;;;11.02;5.70;;;;;;;20.89;100.00;100230.72;5034485;28;20403;-77
2022/08/31 00:23:15;;;;;;;8.73;5.38;;;;;;;20.84;99.16;100230.34;5033931;28;20052;-82
2022/08/31 00:25:45;;;;;;;10.27;5.47;;;;;;;20.80;100.00;100231.69;5033985;28;20045;-83
2022/08/31 00:28:14;;;;;;;10.60;6.10;;;;;;;20.71;100.00;100229.91;5034348;28;20048;-83
2022/08/31 00:30:43;;;;;;;10.82;5.88;;;;;;;20.65;100.00;100225.13;5033962;28;20394;-84
2022/08/31 00:33:12;;;;;;;10.32;5.40;;;;;;;20.58;100.00;100233.03;5033802;28;20128;-81
2022/08/31 00:35:42;;;;;;;7.93;5.40;;;;;;;20.64;100.00;100231.53;5016029;28;20475;-80
2022/08/31 00:38:12;;;;;;;8.50;5.68;;;;;;;20.62;99.54;100237.13;5033739;28;20045;-80
2022/08/31 00:40:45;;;;;;;8.57;5.43;;;;;;;20.67;98.87;100229.41;5033694;28;20120;-80
2022/08/31 00:43:29;;;;;;;8.93;5.75;;;;;;;20.64;98.32;100234.25;5033621;28;20049;-79
2022/08/31 00:45:57;;;;;;;8.52;5.10;;;;;;;20.74;96.67;100229.59;5033009;28;20080;-79
2022/08/31 00:48:25;;;;;;;10.88;5.78;;;;;;;20.62;98.10;100231.72;5033338;28;20053;-78
2022/08/31 00:50:56;;;;;;;6.00;4.07;;;;;;;20.57;84.55;100232.19;5033198;28;20045;-78
2022/08/31 00:53:26;;;;;;;6.35;4.10;;;;;;;20.87;78.93;100219.19;5033764;28;20077;-78
2022/08/31 00:55:54;;;;;;;6.80;4.32;;;;;;;20.96;83.85;100218.25;5033271;28;20150;-78
2022/08/31 00:58:22;;;;;;;7.07;3.67;;;;;;;20.90;75.88;100221.59;5015737;28;20112;-77
2022/08/31 01:00:51;;;;;;;7.13;4.20;;;;;;;20.90;77.73;100231.56;5033055;28;20486;-78
2022/08/31 01:03:20;;;;;;;7.53;4.30;;;;;;;20.86;78.39;100239.19;5033154;28;20045;-78
2022/08/31 01:05:50;;;;;;;6.82;4.28;;;;;;;20.89;77.21;100238.88;5033172;28;20394;-78
2022/08/31 01:08:19;;;;;;;6.47;4.22;;;;;;;20.89;80.87;100240.72;5033370;28;20049;-78
2022/08/31 01:10:59;;;;;;;7.40;3.70;;;;;;;20.79;76.54;100224.56;5032830;28;20068;-78
2022/08/31 01:13:29;;;;;;;8.05;4.10;;;;;;;20.69;78.34;100243.63;5032680;28;20049;-78
2022/08/31 01:16:02;;;;;;;7.35;3.88;;;;;;;20.54;81.70;100229.78;5032442;28;20470;-77
2022/08/31 01:18:33;;;;;;;8.43;4.32;;;;;;;20.52;82.31;100242.63;5033533;28;20132;-82
2022/08/31 01:21:13;;;;;;;5.95;4.03;;;;;;;20.43;83.08;100230.03;5033122;28;20046;-86
2022/08/31 01:23:45;;;;;;;6.50;4.30;;;;;;;20.38;81.90;100231.50;5033820;28;20041;-86
2022/08/31 01:26:16;;;;;;;7.45;4.03;;;;;;;20.36;82.92;100225.34;5033409;28;20487;-85
2022/08/31 01:28:44;;;;;;;8.43;3.70;;;;;;;20.36;81.38;100228.91;5033773;28;20096;-82
2022/08/31 01:31:20;;;;;;;6.82;3.90;;;;;;;20.39;80.10;100235.91;5015179;28;20045;-81
2022/08/31 01:33:48;;;;;;;6.47;3.65;;;;;;;20.38;80.35;100240.47;5033249;28;20120;-84
2022/08/31 01:36:17;;;;;;;7.60;3.97;;;;;;;20.40;78.39;100227.59;5033123;28;20041;-84
2022/08/31 01:38:47;;;;;;;6.40;3.50;;;;;;;20.50;76.33;100235.69;5032808;28;20053;-78
2022/08/31 01:41:20;;;;;;;9.23;4.20;;;;;;;20.52;82.94;100242.63;5033217;28;20041;-77
2022/08/31 01:43:48;;;;;;;6.30;4.15;;;;;;;20.58;79.77;100239.31;5032930;28;20041;-78
2022/08/31 01:46:16;;;;;;;6.47;4.20;;;;;;;20.41;80.90;100234.72;5032971;28;20049;-79
2022/08/31 01:48:46;;;;;;;8.88;4.10;;;;;;;20.20;84.89;100224.22;5032932;28;20057;-79
2022/08/31 01:51:17;;;;;;;5.82;3.83;;;;;;;20.26;81.70;100231.69;5032633;28;20148;-79
2022/08/31 01:53:49;;;;;;;7.18;4.20;;;;;;;20.34;81.87;100233.63;5033050;28;20099;-80
2022/08/31 01:56:19;;;;;;;8.88;4.25;;;;;;;20.20;86.00;100235.03;5032987;28;20045;-79
2022/08/31 01:58:48;;;;;;;6.95;4.85;;;;;;;20.18;92.34;100228.94;5037283;28;20042;-84
2022/08/31 02:01:17;;;;;;;7.18;4.75;;;;;;;20.23;93.65;100233.88;5034923;28;20491;-83
2022/08/31 02:04:02;;;;;;;6.95;4.75;;;;;;;20.36;93.28;100237.03;5034049;28;20483;-86
2022/08/31 02:06:31;;;;;;;9.65;5.32;;;;;;;20.28;96.76;100228.88;5033157;28;20096;-85
2022/08/31 02:09:02;;;;;;;14.45;5.40;;;;;;;20.16;100.00;100227.38;5032790;28;20086;-85
2022/08/31 02:11:30;;;;;;;10.07;5.30;;;;;;;19.98;100.00;100241.78;5032995;28;20148;-85
2022/08/31 02:13:58;;;;;;;9.52;5.30;;;;;;;19.83;100.00;100237.88;5032817;28;20099;-84
2022/08/31 02:16:27;;;;;;;10.25;5.75;;;;;;;19.72;100.00;100243.50;5015377;28;20549;-85
2022/08/31 02:18:55;;;;;;;9.38;5.43;;;;;;;19.77;100.00;100227.63;5032671;28;20402;-84
2022/08/31 02:21:24;;;;;;;11.55;5.93;;;;;;;19.91;100.00;100232.53;5033155;28;20133;-84
2022/08/31 02:23:52;;;;;;;10.68;6.25;;;;;;;19.86;100.00;100236.69;5032962;28;20550;-84
2022/08/31 02:26:22;;;;;;;10.73;6.07;;;;;;;19.91;100.00;100234.41;5035434;28;20088;-85
2022/08/31 02:28:51;;;;;;;10.40;5.82;;;;;;;19.78;100.00;100220.38;5037015;28;20084;-85
2022/08/31 02:31:19;;;;;;;9.32;6.18;;;;;;;19.56;100.00;100218.94;5036853;28;20103;-84
2022/08/31 02:33:47;;;;;;;9.77;6.13;;;;;;;19.62;100.00;100226.47;5036930;28;20578;-84
2022/08/31 02:36:15;;;;;;;9.55;7.15;;;;;;;19.60;100.00;100217.66;5036530;28;20129;-84
2022/08/31 02:38:44;;;;;;;12.57;7.45;;;;;;;19.55;100.00;100222.63;5036574;28;20087;-84
2022/08/31 02:41:12;;;;;;;10.43;6.78;;;;;;;19.54;100.00;100226.31;5037678;28;20073;-84
2022/08/31 02:43:41;;;;;;;11.52;6.85;;;;;;;19.32;100.00;100227.59;5036895;28;20376;-84
2022/08/31 02:46:10;;;;;;;11.07;6.13;;;;;;;19.37;100.00;100234.22;5035918;28;20053;-84
2022/08/31 02:48:38;;;;;;;11.38;6.43;;;;;;;19.24;100.00;100236.44;5035802;28;20053;-84
2022/08/31 02:51:10;;;;;;;10.10;6.72;;;;;;;19.33;100.00;100238.25;5036141;28;20045;-84
2022/08/31 02:53:39;;;;;;;12.33;6.83;;;;;;;19.23;100.00;100245.53;5018347;28;20533;-84
2022/08/31 02:56:07;;;;;;;9.60;6.30;;;;;;;19.25;100.00;100238.13;5035309;28;20045;-84
2022/08/31 02:58:36;;;;;;;10.25;6.20;;;;;;;19.36;100.00;100235.22;5035684;28;20124;-84
2022/08/31 03:01:06;;;;;;;10.40;6.78;;;;;;;19.24;100.00;100231.03;5035918;28;20041;-84
2022/08/31 03:03:35;;;;;;;9.70;6.90;;;;;;;19.40;100.00;100225.84;5036026;28;20037;-83
2022/08/31 03:06:04;;;;;;;10.27;7.18;;;;;;;19.25;100.00;100224.59;5035403;28;20053;-84
2022/08/31 03:08:32;;;;;;;11.45;7.40;;;;;;;19.23;100.00;100223.91;5018220;28;20052;-82
2022/08/31 03:11:01;;;;;;;11.98;6.93;;;;;;;19.20;100.00;100226.88;5035566;28;20049;-81
2022/08/31 03:13:29;;;;;;;13.32;6.90;;;;;;;19.16;100.00;100231.75;5035582;28;20112;-87
2022/08/31 03:15:57;;;;;;;14.20;7.50;;;;;;;19.13;100.00;100228.50;5035492;28;20048;-86
2022/08/31 03:18:27;;;;;;;11.60;7.40;;;;;;;19.10;100.00;100234.19;5035677;28;20056;-87
2022/08/31 03:20:55;;;;;;;10.98;6.78;;;;;;;18.90;100.00;100227.97;5035747;28;20045;-87
2022/08/31 03:23:23;;;;;;;11.57;6.82;;;;;;;19.00;100.00;100241.47;5035539;28;20049;-86
2022/08/31 03:25:51;;;;;;;10.55;7.03;;;;;;;18.95;100.00;100232.97;5035337;28;20057;-81
2022/08/31 03:28:19;;;;;;;10.45;6.65;;;;;;;18.94;100.00;100242.94;5035126;28;20042;-82
2022/08/31 03:30:48;;;;;;;13.43;7.07;;;;;;;18.99;100.00;100243.31;5035214;28;20053;-81
2022/08/31 03:33:16;;;;;;;10.55;6.78;;;;;;;19.05;100.00;100247.31;5034782;28;20080;-80
2022/08/31 03:35:46;;;;;;;9.88;6.55;;;;;;;19.09;100.00;100240.59;5034670;28;20045;-80
2022/08/31 03:38:15;;;;;;;9.65;6.05;;;;;;;19.13;100.00;100242.88;5033664;28;20509;-81
2022/08/31 03:40:44;;;;;;;8.90;6.00;;;;;;;19.20;100.00;100244.97;5034875;28;20046;-79
2022/08/31 03:43:12;;;;;;;8.98;6.72;;;;;;;19.36;100.00;100243.34;5016594;28;20060;-78
2022/08/31 03:45:42;;;;;;;11.85;6.43;;;;;;;19.38;100.00;100241.34;5034596;28;20549;-79
2022/08/31 03:48:11;;;;;;;13.10;6.30;;;;;;;19.32;100.00;100244.66;5034417;28;20046;-80
2022/08/31 03:50:41;;;;;;;9.85;6.38;;;;;;;19.36;100.00;100234.38;5016949;28;20056;-77
2022/08/31 03:53:11;;;;;;;11.02;6.40;;;;;;;19.34;100.00;100244.50;5034460;28;20084;-77
2022/08/31 03:55:42;;;;;;;11.10;6.68;;;;;;;19.25;100.00;100235.44;5034735;28;20045;-77
2022/08/31 03:58:10;;;;;;;9.10;7.00;;;;;;;19.13;100.00;100242.03;5034228;28;20087;-77
2022/08/31 04:00:40;;;;;;;11.13;7.40;;;;;;;18.91;100.00;100239.66;5034693;28;20045;-77
2022/08/31 04:03:08;;;;;;;10.63;6.50;;;;;;;18.83;100.00;100241.25;5034293;28;20048;-77
2022/08/31 04:05:42;;;;;;;12.45;6.60;;;;;;;18.81;100.00;100245.91;5034618;28;20414;-78
2022/08/31 04:08:12;;;;;;;9.75;6.78;;;;;;;18.66;100.00;100241.97;5034108;28;20046;-78
2022/08/31 04:10:42;;;;;;;14.07;7.35;;;;;;;18.70;100.00;100248.78;5034285;28;20041;-85
2022/08/31 04:13:10;;;;;;;10.35;6.90;;;;;;;18.73;100.00;100243.13;5034659;28;20072;-86
2022/08/31 04:15:39;;;;;;;12.55;7.20;;;;;;;18.84;100.00;100250.22;5034476;28;20497;-86
2022/08/31 04:18:08;;;;;;;12.00;7.30;;;;;;;18.70;100.00;100237.97;5034388;28;20045;-86
2022/08/31 04:20:38;;;;;;;12.52;6.93;;;;;;;18.73;100.00;100251.22;5017123;28;20056;-86
2022/08/31 04:23:07;;;;;;;15.40;7.90;;;;;;;18.83;100.00;100257.47;5016710;28;20045;-85
2022/08/31 04:25:40;;;;;;;10.88;7.05;;;;;;;18.78;100.00;100251.63;5034384;28;20068;-85
2022/08/31 04:28:08;;;;;;;;;;;;;;;18.71;100.00;100255.91;5034947;28;20197;-85
2022/08/31 04:30:41;;;;;;;15.60;8.13;;;;;;;18.67;100.00;100254.50;5016739;28;19921;-79
2022/08/31 04:33:10;;;;;;;13.73;7.87;;;;;;;18.71;100.00;100263.16;5033480;28;20544;-79
2022/08/31 04:35:39;;;;;;;12.27;7.68;;;;;;;18.77;100.00;100257.19;5033639;28;20636;-79
2022/08/31 04:38:08;;;;;;;11.15;7.25;;;;;;;19.03;100.00;100252.00;5033226;28;20048;-79
2022/08/31 04:40:39;;;;;;;12.15;7.07;;;;;;;19.27;100.00;100263.16;5033749;28;20048;-79
2022/08/31 04:43:08;;;;;;;12.82;7.25;;;;;;;19.23;100.00;100250.94;5033465;28;20045;-79
2022/08/31 04:45:41;;;;;;;10.73;7.00;;;;;;;19.19;100.00;100252.22;5033939;28;20053;-79
2022/08/31 04:48:13;;;;;;;11.85;7.32;;;;;;;19.04;100.00;100251.00;5033026;28;20061;-79
2022/08/31 04:50:41;;;;;;;11.70;7.75;;;;;;;18.83;100.00;100251.22;5033399;28;20045;-78
2022/08/31 04:53:10;;;;;;;13.63;7.88;;;;;;;18.97;100.00;100266.09;5033090;28;20479;-79
2022/08/31 04:55:41;;;;;;;10.63;7.20;;;;;;;19.33;100.00;100259.88;5033551;28;20049;-83
2022/08/31 04:58:11;;;;;;;11.20;7.40;;;;;;;19.36;100.00;100264.97;5015701;28;20053;-83
2022/08/31 05:00:42;;;;;;;14.40;7.30;;;;;;;19.59;100.00;100259.22;5033404;28;20049;-81
2022/08/31 05:03:10;;;;;;;12.20;7.05;;;;;;;19.57;100.00;100266.63;5015402;28;20053;-83
2022/08/31 05:05:39;;;;;;;12.65;7.05;;;;;;;19.58;100.00;100268.34;5015832;28;20052;-83
2022/08/31 05:08:08;;;;;;;8.88;6.55;;;;;;;19.83;100.00;100262.22;5033185;28;20049;-80
2022/08/31 05:10:36;;;;;;;11.23;6.68;;;;;;;19.94;100.00;100264.72;5033350;28;20103;-87
2022/08/31 05:13:06;;;;;;;16.50;7.22;;;;;;;20.02;100.00;100259.41;5033568;28;20087;-86
2022/08/31 05:15:39;;;;;;;12.85;6.72;;;;;;;20.17;100.00;100265.16;5015994;28;20045;-85
2022/08/31 05:18:08;;;;;;;10.20;6.50;;;;;;;20.45;100.00;100262.38;5015811;28;20073;-86
2022/08/31 05:20:36;;;;;;;9.48;6.30;;;;;;;20.54;100.00;100266.88;5033870;28;20537;-86
2022/08/31 05:23:04;;;;;;;12.20;6.00;;;;;;;20.52;100.00;100260.75;5033773;28;20128;-78
2022/08/31 05:25:33;;;;;;;12.05;5.93;;;;;;;20.55;100.00;100260.44;5033033;28;20107;-77
2022/08/31 05:28:01;;;;;;;10.88;5.80;;;;;;;20.61;100.00;100267.09;5032880;28;20103;-78
2022/08/31 05:30:31;;;;;;;10.13;6.22;;;;;;;20.76;100.00;100262.84;5015756;28;20434;-84
2022/08/31 05:32:59;;;;;;;12.35;5.90;;;;;;;20.96;100.00;100267.06;5033113;28;20096;-75
2022/08/31 05:35:27;;;;;;;13.52;6.28;;;;;;;20.99;100.00;100268.59;5032761;28;20409;-83
2022/08/31 05:37:56;;;;;;;9.25;5.60;;;;;;;20.92;100.00;100268.34;5032874;28;20072;-82
2022/08/31 05:40:24;;;;;;;10.90;5.85;;;;;;;20.87;100.00;100276.13;5032708;28;20127;-82
2022/08/31 05:42:52;;;;;;;9.23;5.82;;;;;;;21.30;100.00;100283.38;5033158;28;20049;-82
2022/08/31 05:45:20;;;;;;;11.40;5.68;;;;;;;21.39;100.00;100277.00;5032871;28;20053;-81
2022/08/31 05:47:49;;;;;;;9.68;5.95;;;;;;;21.26;100.00;100275.72;5032669;28;20049;-81
2022/08/31 05:50:18;;;;;;;10.52;6.10;;;;;;;21.49;100.00;100270.59;5032793;28;20465;-81
2022/08/31 05:52:46;;;;;;;10.85;5.63;;;;;;;21.65;98.53;100268.81;5032722;28;20077;-81
2022/08/31 05:55:14;;;;;;;9.48;5.57;;;;;;;21.64;97.10;100269.84;5032735;28;20049;-80
2022/08/31 05:57:42;;;;;;;11.15;5.60;;;;;;;21.63;96.54;100268.16;5032773;28;20054;-81
2022/08/31 06:00:11;;;;;;;9.07;5.60;;;;;;;21.82;94.57;100260.75;5032962;28;20052;-80
2022/08/31 06:02:40;;;;;;;8.10;5.55;;;;;;;21.90;92.84;100268.91;5036508;28;20050;-81
2022/08/31 06:05:10;;;;;;;8.93;5.65;;;;;;;22.07;87.41;100270.69;5036222;28;20052;-80
2022/08/31 06:07:38;;;;;;;9.25;5.30;;;;;;;22.17;87.46;100268.66;5036376;28;20103;-80
2022/08/31 06:10:08;;;;;;;7.75;4.72;;;;;;;22.29;84.55;100263.75;5036230;28;20045;-78
2022/08/31 06:12:37;;;;;;;12.90;5.70;;;;;;;22.59;80.61;100273.16;5036508;28;20410;-79
2022/08/31 06:15:06;;;;;;;8.77;5.38;;;;;;;22.86;78.13;100269.25;5036089;28;20042;-77
2022/08/31 06:17:35;;;;;;;11.25;5.05;;;;;;;23.29;74.06;100273.47;5018631;28;20391;-80
2022/08/31 06:20:04;;;;;;;12.63;5.03;;;;;;;23.77;68.96;100271.63;5035902;28;20501;-77
2022/08/31 06:22:36;;;;;;;9.18;4.63;;;;;;;24.26;67.04;100276.81;5018180;28;20359;-76
2022/08/31 06:25:05;;;;;;;9.43;4.50;;;;;;;24.63;64.12;100275.22;5036295;28;20042;-76
2022/08/31 06:27:37;;;;;;;11.43;5.22;;;;;;;24.72;64.11;100271.41;5018544;28;20064;-86
2022/08/31 06:30:07;;;;;;;8.95;5.25;;;;;;;24.96;62.41;100276.63;5036776;28;20445;-86
2022/08/31 06:32:35;;;;;;;8.25;4.43;;;;;;;24.97;60.95;100274.72;5018604;28;20568;-85
2022/08/31 06:35:04;;;;;;;8.30;4.32;;;;;;;24.94;61.67;100275.13;5036702;28;20046;-85
2022/08/31 06:37:32;;;;;;;8.98;4.50;;;;;;;25.24;60.38;100279.63;5036333;28;20091;-85
2022/08/31 06:40:01;;;;;;;13.95;5.13;;;;;;;25.68;58.16;100270.59;5018310;28;20049;-84
2022/08/31 06:42:30;;;;;;;10.35;4.68;;;;;;;25.25;59.30;100281.31;5035546;28;20053;-83
2022/08/31 06:44:58;;;;;;;9.40;4.63;;;;;;;24.67;61.15;100274.66;5035610;28;20056;-78
2022/08/31 06:47:26;;;;;;;8.57;4.68;;;;;;;24.73;60.93;100267.63;5035387;28;20125;-79
2022/08/31 06:49:56;;;;;;;10.10;4.70;;;;;;;25.35;57.94;100281.03;5035507;28;20079;-78
2022/08/31 06:52:24;;;;;;;7.15;4.13;;;;;;;25.92;55.52;100277.66;5035417;28;20042;-78
2022/08/31 06:54:52;;;;;;;6.85;4.10;;;;;;;25.64;54.08;100286.50;5035721;28;20047;-78
2022/08/31 06:57:22;;;;;;;9.10;4.15;;;;;;;25.56;55.93;100285.75;5035273;28;20057;-80
2022/08/31 06:59:52;;;;;;;8.93;4.20;;;;;;;25.24;55.54;100281.50;5000500;28;20461;-80
2022/08/31 07:02:20;;;;;;;6.30;3.83;;;;;;;25.05;58.57;100286.44;5015454;28;20141;-82
2022/08/31 07:04:48;;;;;;;11.50;4.22;;;;;;;24.84;59.62;100275.38;4998457;28;20046;-83
2022/08/31 07:07:17;;;;;;;7.07;3.95;;;;;;;24.75;55.30;100287.38;4998152;28;20392;-83
2022/08/31 07:09:45;;;;;;;7.40;3.22;;;;;;;24.71;52.62;100288.78;5015734;28;20049;-82
2022/08/31 07:12:13;;;;;;;5.82;3.15;;;;;;;24.41;50.67;100282.34;5014054;28;20050;-76
2022/08/31 07:14:45;;;;;;;6.57;3.30;;;;;;;24.53;50.50;100287.22;5015681;28;20487;-79
2022/08/31 07:17:22;;;;;;;6.18;3.30;;;;;;;24.28;50.47;100288.38;5015295;28;20045;-78
2022/08/31 07:19:50;;;;;;;5.20;3.60;;;;;;;24.42;50.47;100292.25;5015464;28;20042;-77
2022/08/31 07:22:18;;;;;;;5.05;3.40;;;;;;;24.21;50.92;100287.38;5015163;28;20439;-77
2022/08/31 07:24:47;;;;;;;4.70;3.42;;;;;;;24.40;50.66;100284.22;4997877;28;20046;-77
2022/08/31 07:27:17;;;;;;;5.60;3.30;;;;;;;24.51;50.43;100283.81;5004138;28;20081;-77
2022/08/31 07:29:47;;;;;;;9.27;3.65;;;;;;;24.54;51.05;100283.44;5034541;28;20131;-77
2022/08/31 07:32:16;;;;;;;7.85;3.63;;;;;;;24.57;50.27;100290.41;5000374;28;20057;-77
2022/08/31 07:34:44;;;;;;;5.15;3.22;;;;;;;24.37;49.84;100289.19;5016047;28;20438;-77
2022/08/31 07:42:49;;;;;;;6.32;3.58;;;;;;;24.17;50.36;100284.19;5014776;28;20085;-77
2022/08/31 07:45:21;;;;;;;6.30;3.35;;;;;;;24.23;50.49;100285.34;5014591;28;20450;-77
2022/08/31 07:47:54;;;;;;;5.60;3.42;;;;;;;24.24;50.98;100284.31;4999627;28;20399;-77
2022/08/31 07:50:25;;;;;;;5.72;3.63;;;;;;;24.29;50.51;100287.34;5032746;28;20426;-77
2022/08/31 07:52:56;;;;;;;6.57;3.60;;;;;;;24.53;49.46;100284.50;5034374;28;20038;-77
2022/08/31 07:55:28;;;;;;;6.40;3.67;;;;;;;24.62;49.21;100282.56;5034270;28;20045;-77
2022/08/31 07:57:56;;;;;;;6.25;2.95;;;;;;;24.55;49.26;100287.88;5034434;28;20041;-77
2022/08/31 08:00:31;;;;;;;5.43;3.22;;;;;;;24.60;49.07;100286.47;5032923;28;20057;-77
2022/08/31 08:03:05;;;;;;;6.00;3.10;;;;;;;24.46;49.28;100283.50;5034488;28;20042;-77
2022/08/31 08:05:37;;;;;;;11.43;3.58;;;;;;;24.53;48.09;100287.22;5032868;28;20080;-77
2022/08/31 08:08:07;;;;;;;6.38;3.35;;;;;;;24.43;48.49;100283.03;5034335;28;20116;-77
2022/08/31 08:10:47;;;;;;;5.10;3.22;;;;;;;24.36;49.24;100272.00;5034302;28;20120;-77
2022/08/31 08:13:21;;;;;;;5.88;3.13;;;;;;;24.51;48.39;100262.03;5034245;28;20099;-77
2022/08/31 08:15:51;;;;;;;5.95;3.10;;;;;;;24.56;48.01;100264.19;5033060;28;20115;-77
2022/08/31 08:18:20;;;;;;;6.18;3.17;;;;;;;24.61;48.15;100253.59;5033845;28;20103;-77
2022/08/31 08:20:48;;;;;;;6.13;3.10;;;;;;;24.72;47.93;100255.88;5032464;28;20500;-77
2022/08/31 08:23:17;;;;;;;6.55;3.38;;;;;;;24.55;48.10;100271.50;5033533;28;20176;-77
2022/08/31 08:25:59;;;;;;;5.10;3.03;;;;;;;24.38;48.42;100263.63;5034234;28;20116;-77
2022/08/31 08:28:29;;;;;;;6.03;3.88;;;;;;;24.60;49.22;100262.78;5033840;28;20069;-77
2022/08/31 08:31:16;;;;;;;6.72;3.30;;;;;;;24.63;49.21;100256.13;5032454;28;20401;-77
2022/08/31 08:33:45;;;;;;;5.77;3.23;;;;;;;24.78;47.34;100254.28;5033655;28;20107;-77
2022/08/31 08:36:18;;;;;;;5.47;3.10;;;;;;;24.62;47.22;100257.16;5032504;28;20053;-76
2022/08/31 08:38:49;;;;;;;5.10;3.23;;;;;;;24.78;47.28;100251.53;5032632;28;20414;-76
2022/08/31 08:41:20;;;;;;;5.03;3.10;;;;;;;24.64;46.94;100255.09;5033469;28;20068;-79
2022/08/31 08:43:50;;;;;;;5.80;3.35;;;;;;;24.79;47.17;100250.50;5033511;28;20048;-78
2022/08/31 08:46:29;;;;;;;7.05;3.50;;;;;;;25.03;46.67;100252.22;5031935;28;20561;-79
2022/08/31 08:49:14;;;;;;;5.32;3.33;;;;;;;25.10;46.40;100253.16;5033493;28;20053;-79
2022/08/31 08:51:43;;;;;;;8.50;3.50;;;;;;;25.04;46.64;100251.16;5033499;28;20053;-77
2022/08/31 08:54:14;;;;;;;6.15;3.08;;;;;;;25.19;46.46;100245.72;5033433;28;20041;-78
2022/08/31 08:56:47;;;;;;;7.57;3.20;;;;;;;25.26;46.20;100243.94;5033682;28;20072;-79
2022/08/31 08:59:17;;;;;;;7.63;3.95;;;;;;;25.43;45.79;100241.88;5033314;28;20132;-78
2022/08/31 09:02:05;;;;;;;5.60;3.05;;;;;;;25.15;45.82;100249.88;5032189;28;20049;-78
2022/08/31 09:04:48;;;;;;;5.97;3.45;;;;;;;25.16;45.52;100237.91;5033077;28;20045;-78
2022/08/31 09:07:36;;;;;;;5.57;3.55;;;;;;;25.12;46.21;100240.19;5033590;28;20045;-78
2022/08/31 09:10:14;;;;;;;5.00;3.00;;;;;;;25.25;45.40;100236.78;5033441;28;20049;-77
2022/08/31 09:12:49;;;;;;;6.25;3.20;;;;;;;25.30;45.79;100239.81;5031639;28;20053;-77
2022/08/31 09:15:43;;;;;;;6.78;3.38;;;;;;;25.22;45.28;100228.97;5031842;28;20172;-77
2022/08/31 09:18:30;;;;;;;7.22;3.28;;;;;;;25.11;45.04;100231.16;5033328;28;20156;-78
2022/08/31 09:21:20;;;;;;;6.45;3.22;;;;;;;24.95;46.38;100223.09;5031732;28;20561;-78
2022/08/31 09:23:54;;;;;;;5.20;3.20;;;;;;;25.08;45.83;100223.31;5033104;28;20112;-78
2022/08/31 09:26:26;;;;;;;5.05;3.28;;;;;;;25.55;44.31;100213.03;5033089;28;20394;-78
2022/08/31 09:28:55;;;;;;;6.55;3.00;;;;;;;25.49;44.20;100214.66;5033055;28;20038;-79
2022/08/31 09:31:33;;;;;;;6.93;3.42;;;;;;;25.55;44.51;100213.91;5031377;28;20073;-78
2022/08/31 09:34:04;;;;;;;6.03;3.30;;;;;;;25.66;43.84;100204.34;5033569;28;20046;-78
2022/08/31 09:36:39;;;;;;;6.30;3.13;;;;;;;25.73;43.65;100210.78;5035757;28;20045;-78
2022/08/31 09:39:17;;;;;;;4.95;3.20;;;;;;;25.71;43.93;100215.59;5037202;28;20454;-78
2022/08/31 09:41:48;;;;;;;6.43;3.13;;;;;;;25.81;43.48;100201.66;5037119;28;20046;-78
2022/08/31 09:44:25;;;;;;;5.55;2.90;;;;;;;25.77;44.00;100201.19;5035400;28;20049;-78
2022/08/31 09:46:59;;;;;;;4.63;3.20;;;;;;;25.83;43.82;100199.56;5035605;28;20491;-77
2022/08/31 09:49:30;;;;;;;6.57;3.10;;;;;;;26.12;43.59;100198.63;5036451;28;20069;-78
2022/08/31 09:55:11;;;;;;;6.57;3.30;;;;;;;25.95;43.00;100198.84;5035494;28;20053;-77
2022/08/31 09:55:13;;;;;;;5.88;3.17;;;;;;;25.87;42.92;100188.06;5035776;28;20053;-78
2022/08/31 09:57:44;;;;;;;6.82;3.00;;;;;;;25.95;42.36;100203.47;5036662;28;20045;-78
2022/08/31 10:00:15;;;;;;;7.68;3.10;;;;;;;25.92;43.04;100187.47;5035388;28;20049;-78
2022/08/31 10:02:43;;;;;;;6.07;3.08;;;;;;;26.13;42.74;100186.66;5036350;28;20116;-78
2022/08/31 10:05:31;;;;;;;6.90;3.10;;;;;;;26.31;42.25;100175.25;5036569;28;20384;-78
2022/08/31 10:08:08;;;;;;;6.18;3.08;;;;;;;26.33;41.23;100178.63;5036398;28;20136;-78
2022/08/31 10:10:39;;;;;;;6.03;2.88;;;;;;;26.40;42.06;100179.59;5036349;28;20427;-78
2022/08/31 10:13:16;;;;;;;6.32;3.22;;;;;;;26.67;41.74;100177.91;5036203;28;20073;-78
2022/08/31 10:15:51;;;;;;;5.05;3.00;;;;;;;26.67;41.11;100176.03;5034919;28;20053;-78
2022/08/31 10:18:26;;;;;;;5.00;2.85;;;;;;;26.63;40.84;100173.88;5035082;28;20140;-78
2022/08/31 10:21:04;;;;;;;4.63;3.08;;;;;;;26.60;41.18;100166.91;5034921;28;20104;-78
2022/08/31 10:23:41;;;;;;;4.57;2.95;;;;;;;26.70;42.20;100170.16;5034435;28;20103;-78
2022/08/31 10:26:16;;;;;;;4.43;3.08;;;;;;;26.79;41.34;100158.00;5035949;28;20042;-78
2022/08/31 10:28:49;;;;;;;7.40;3.22;;;;;;;26.39;41.77;100162.31;5034417;28;20128;-78
2022/08/31 10:31:22;;;;;;;5.75;3.20;;;;;;;26.28;41.40;100159.25;5035000;28;20106;-78
2022/08/31 10:36:47;;;;;;;5.25;3.17;;;;;;;26.45;40.86;100144.31;5035484;28;20058;-78
2022/08/31 10:39:24;;;;;;;5.43;3.17;;;;;;;26.42;41.12;100150.13;5035832;28;20037;-78
2022/08/31 10:41:52;;;;;;;5.30;3.13;;;;;;;26.53;41.27;100141.41;5034669;28;20045;-78
2022/08/31 10:44:31;;;;;;;5.38;3.08;;;;;;;26.33;41.11;100140.34;5034594;28;20409;-78
2022/08/31 10:47:01;;;;;;;5.25;3.00;;;;;;;26.36;41.20;100129.03;5034453;28;20053;-78
2022/08/31 10:49:31;;;;;;;6.05;2.90;;;;;;;26.72;40.65;100129.75;5035636;28;20057;-78
2022/08/31 10:52:17;;;;;;;5.50;3.63;;;;;;;26.94;40.41;100133.28;5035946;28;20041;-78
2022/08/31 10:54:53;;;;;;;6.07;3.33;;;;;;;26.94;39.72;100138.75;5042327;28;20109;-78
2022/08/31 10:57:36;;;;;;;7.18;3.38;;;;;;;27.15;40.23;100131.53;5050392;28;20049;-78
2022/08/31 11:00:08;;;;;;;6.05;2.90;;;;;;;27.31;39.63;100129.31;5037532;28;20045;-78
2022/08/31 11:02:45;;;;;;;5.25;3.35;;;;;;;27.46;39.87;100120.06;5034748;28;20041;-78
2022/08/31 11:05:27;;;;;;;4.60;3.17;;;;;;;27.68;39.18;100129.88;5034377;28;20075;-78
2022/08/31 11:08:08;;;;;;;6.65;3.00;;;;;;;27.18;40.01;100122.91;5035755;28;20041;-78
2022/08/31 11:10:47;;;;;;;6.00;2.85;;;;;;;27.37;39.55;100123.00;5034238;28;20128;-78
2022/08/31 11:13:37;;;;;;;4.78;3.17;;;;;;;27.54;39.35;100123.47;5033926;28;20084;-78
2022/08/31 11:16:30;;;;;;;5.38;3.22;;;;;;;27.46;39.24;100120.91;5035307;28;20120;-78
2022/08/31 11:19:18;;;;;;;4.57;3.03;;;;;;;27.36;39.53;100123.19;5034514;28;20050;-78
2022/08/31 11:22:01;;;;;;;4.65;3.15;;;;;;;27.12;40.23;100113.63;5034794;28;20407;-78
2022/08/31 11:24:48;;;;;;;;;;;;;;;27.26;39.92;100104.41;5034037;28;20466;-78
2022/08/31 11:27:22;;;;;;;5.28;3.03;;;;;;;27.40;39.65;100105.28;5035334;28;19964;-78
2022/08/31 11:29:56;;;;;;;4.70;2.90;;;;;;;27.47;40.09;100105.31;5035099;28;20041;-78
2022/08/31 11:32:33;;;;;;;5.88;3.20;;;;;;;27.46;39.25;100111.84;5034936;28;20038;-78
2022/08/31 11:35:09;;;;;;;5.85;2.95;;;;;;;27.31;39.82;100112.00;5035378;28;20449;-78
2022/08/31 11:37:55;;;;;;;4.75;2.72;;;;;;;27.36;39.10;100110.34;5034883;28;20581;-78
2022/08/31 11:41:12;;;;;;;6.55;3.25;;;;;;;27.37;39.26;100106.56;5033739;28;20057;-78
2022/08/31 11:43:49;;;;;;;6.78;3.15;;;;;;;27.56;38.87;100109.56;5034472;28;20088;-78
2022/08/31 11:46:58;;;;;;;5.05;2.88;;;;;;;27.72;38.51;100101.03;5034971;28;20050;-78
2022/08/31 11:49:48;;;;;;;4.50;2.83;;;;;;;27.89;38.21;100099.59;5034619;28;20080;-78
2022/08/31 11:52:37;;;;;;;5.95;3.33;;;;;;;27.87;38.15;100103.56;5033467;28;20055;-78
2022/08/31 11:55:19;;;;;;;5.13;3.08;;;;;;;27.80;39.31;100095.34;5033425;28;20049;-78